Time;durP1;ratioP1;P1;durP2;ratioP2;P2;SDS_P1;SDS_P2;PMS_P1;PMS_P2;Temp;Humidity;BMP_temperature;BMP_pressure;BME280_temperature;BME280_humidity;BME280_pressure;Samples;Min_cycle;Max_cycle;Signal;HPM_P1;HPM_P2
2022/05/17 00:00:43;;;;;;;18.70;6.90;;;;;;;18.03;100.00;98292.22;4980512;28;20073;-55
2022/05/17 00:03:09;;;;;;;19.80;7.65;;;;;;;17.93;100.00;98292.00;4980886;28;20595;-56
2022/05/17 00:05:34;;;;;;;19.75;7.65;;;;;;;17.83;100.00;98297.00;4980588;28;20137;-57
2022/05/17 00:08:00;;;;;;;21.75;7.40;;;;;;;18.02;100.00;98290.53;4980815;28;20100;-56
2022/05/17 00:10:26;;;;;;;22.77;8.15;;;;;;;17.85;100.00;98294.31;4980385;28;20046;-55
2022/05/17 00:12:53;;;;;;;22.58;8.07;;;;;;;17.95;100.00;98297.19;4981378;28;20068;-56
2022/05/17 00:15:20;;;;;;;22.98;7.78;;;;;;;17.94;100.00;98287.56;4979722;28;20458;-57
2022/05/17 00:17:46;;;;;;;18.85;7.63;;;;;;;17.80;100.00;98289.28;4980719;28;20093;-55
2022/05/17 00:20:13;;;;;;;20.35;7.60;;;;;;;17.86;100.00;98293.34;4979788;28;20163;-56
2022/05/17 00:22:40;;;;;;;22.63;7.28;;;;;;;17.69;100.00;98299.72;4980511;28;20034;-57
2022/05/17 00:25:06;;;;;;;19.85;7.32;;;;;;;17.79;100.00;98290.25;4980769;28;20216;-56
2022/05/17 00:27:32;;;;;;;21.63;7.80;;;;;;;17.89;100.00;98296.63;4980007;28;20046;-56
2022/05/17 00:29:57;;;;;;;22.00;7.90;;;;;;;17.65;100.00;98298.22;4980140;28;20033;-55
2022/05/17 00:32:23;;;;;;;21.17;7.60;;;;;;;17.86;100.00;98290.72;4979996;28;20069;-55
2022/05/17 00:34:48;;;;;;;20.80;7.93;;;;;;;17.90;100.00;98290.41;4980328;28;20401;-56
2022/05/17 00:37:14;;;;;;;20.70;6.95;;;;;;;17.88;100.00;98284.41;4979816;28;20049;-56
2022/05/17 00:39:40;;;;;;;22.15;8.05;;;;;;;17.86;100.00;98286.25;4979949;28;20060;-58
2022/05/17 00:42:06;;;;;;;19.33;7.97;;;;;;;17.90;100.00;98282.50;4979996;28;20042;-57
2022/05/17 00:44:43;;;;;;;20.77;7.85;;;;;;;17.86;100.00;98286.25;4980501;28;20037;-55
2022/05/17 00:47:27;;;;;;;24.55;8.38;;;;;;;17.51;100.00;98289.38;4979848;28;20042;-56
2022/05/17 00:50:10;;;;;;;18.88;7.05;;;;;;;17.91;100.00;98278.91;4980190;28;20069;-57
2022/05/17 00:52:41;;;;;;;20.02;7.80;;;;;;;17.66;100.00;98284.06;4979803;28;20038;-56
2022/05/17 00:55:14;;;;;;;17.95;7.90;;;;;;;17.68;100.00;98288.31;4979851;28;20037;-56
2022/05/17 00:57:46;;;;;;;19.20;7.65;;;;;;;17.80;100.00;98281.38;4980166;28;20022;-55
2022/05/17 01:00:14;;;;;;;21.23;7.05;;;;;;;17.71;100.00;98287.25;4979420;28;20512;-55
2022/05/17 01:02:42;;;;;;;18.67;7.65;;;;;;;17.92;100.00;98280.59;4979929;28;20093;-55
2022/05/17 01:05:08;;;;;;;25.02;8.80;;;;;;;17.81;100.00;98280.44;4979612;28;20117;-56
2022/05/17 01:07:40;;;;;;;22.30;8.40;;;;;;;17.52;100.00;98282.34;4979670;28;20054;-55
2022/05/17 01:10:06;;;;;;;17.30;6.85;;;;;;;17.74;100.00;98279.16;4979269;28;20026;-55
2022/05/17 01:12:35;;;;;;;18.05;7.43;;;;;;;17.90;100.00;98282.50;4979853;28;20565;-57
2022/05/17 01:15:00;;;;;;;22.67;7.50;;;;;;;17.77;100.00;98281.56;4979974;28;20152;-56
2022/05/17 01:17:28;;;;;;;18.45;7.60;;;;;;;17.85;100.00;98279.31;4978828;28;20157;-55
2022/05/17 01:19:54;;;;;;;22.67;8.13;;;;;;;17.84;100.00;98282.84;4978785;28;20030;-55
2022/05/17 01:22:21;;;;;;;21.05;7.28;;;;;;;18.01;100.00;98279.16;4979179;28;20048;-56
2022/05/17 01:24:46;;;;;;;19.45;6.90;;;;;;;17.89;100.00;98283.44;4979650;28;20096;-57
2022/05/17 01:27:35;;;;;;;22.80;7.97;;;;;;;17.93;100.00;98281.44;4978783;28;20062;-55
2022/05/17 01:30:01;;;;;;;22.63;7.93;;;;;;;17.81;100.00;98280.44;4979280;28;20108;-56
2022/05/17 01:32:26;;;;;;;21.52;6.75;;;;;;;17.91;100.00;98280.69;4978992;28;20037;-55
2022/05/17 01:34:52;;;;;;;20.02;7.65;;;;;;;17.88;100.00;98281.75;4979525;28;20038;-55
2022/05/17 01:37:18;;;;;;;20.85;7.25;;;;;;;17.69;100.00;98289.16;4978570;28;20460;-56
2022/05/17 01:39:44;;;;;;;19.75;7.05;;;;;;;18.08;100.00;98283.03;4979195;28;20062;-56
2022/05/17 01:42:11;;;;;;;21.40;7.60;;;;;;;18.14;100.00;98275.66;4978226;28;20138;-57
2022/05/17 01:44:38;;;;;;;20.55;7.60;;;;;;;18.00;100.00;98277.44;4979310;28;20022;-56
2022/05/17 01:47:03;;;;;;;21.20;6.95;;;;;;;18.00;100.00;98274.81;4978579;28;20034;-56
2022/05/17 01:49:29;;;;;;;20.95;7.97;;;;;;;17.95;100.00;98278.69;4979152;28;20026;-56
2022/05/17 01:51:54;;;;;;;22.13;7.47;;;;;;;17.78;100.00;98283.28;4978286;28;20452;-56
2022/05/17 01:54:20;;;;;;;22.80;7.65;;;;;;;17.79;100.00;98279.69;4993717;28;20041;-56
2022/05/17 01:56:46;;;;;;;22.35;7.80;;;;;;;17.71;100.00;98287.25;4978565;28;20034;-56
2022/05/17 01:59:12;;;;;;;19.77;7.10;;;;;;;17.80;100.00;98283.19;4978887;28;20518;-56
2022/05/17 02:01:38;;;;;;;20.42;7.63;;;;;;;17.90;100.00;98285.13;4978398;28;20073;-56
2022/05/17 02:04:03;;;;;;;20.80;7.85;;;;;;;17.90;100.00;98286.91;4979064;28;20045;-57
2022/05/17 02:06:29;;;;;;;23.65;8.13;;;;;;;17.77;100.00;98291.28;4978288;28;20057;-55
2022/05/17 02:08:54;;;;;;;20.58;8.02;;;;;;;17.79;100.00;98284.97;4978874;28;20436;-55
2022/05/17 02:11:19;;;;;;;19.92;6.93;;;;;;;18.18;100.00;98275.38;4978442;28;20086;-57
2022/05/17 02:13:45;;;;;;;18.13;7.40;;;;;;;17.90;100.00;98282.50;4978767;28;20483;-56
2022/05/17 02:16:11;;;;;;;21.35;7.35;;;;;;;17.87;100.00;98282.69;4978463;28;20141;-55
2022/05/17 02:18:36;;;;;;;21.75;7.80;;;;;;;17.66;100.00;98294.63;4978657;28;20029;-56
2022/05/17 02:21:03;;;;;;;21.50;7.70;;;;;;;18.00;100.00;98284.53;4977823;28;20050;-58
2022/05/17 02:23:28;;;;;;;20.60;7.13;;;;;;;18.03;100.00;98281.66;4978666;28;20705;-55
2022/05/17 02:25:54;;;;;;;18.17;7.25;;;;;;;17.88;100.00;98284.41;4978530;28;20034;-55
2022/05/17 02:28:20;;;;;;;19.17;7.30;;;;;;;17.92;100.00;98283.25;4978457;28;20423;-55
2022/05/17 02:30:46;;;;;;;25.80;7.88;;;;;;;17.86;100.00;98283.63;4978493;28;20117;-56
2022/05/17 02:33:12;;;;;;;20.77;7.63;;;;;;;17.85;100.00;98289.88;4975803;28;20121;-56
2022/05/17 02:35:38;;;;;;;20.27;7.80;;;;;;;17.82;100.00;98283.91;4976487;28;20043;-56
2022/05/17 02:38:03;;;;;;;21.52;7.75;;;;;;;17.66;100.00;98289.34;4977735;28;20439;-57
2022/05/17 02:40:29;;;;;;;24.80;7.80;;;;;;;17.63;100.00;98292.19;4978251;28;20659;-56
2022/05/17 02:42:54;;;;;;;23.50;8.10;;;;;;;17.75;100.00;98283.47;4978541;28;20022;-57
2022/05/17 02:45:19;;;;;;;18.52;7.75;;;;;;;17.51;100.00;98286.75;4978355;28;20746;-57
2022/05/17 02:47:45;;;;;;;21.80;7.70;;;;;;;17.53;100.00;98284.88;4974726;28;20018;-56
2022/05/17 02:50:11;;;;;;;20.75;7.57;;;;;;;17.81;100.00;98285.72;4975384;28;20480;-56
2022/05/17 02:52:38;;;;;;;23.38;7.63;;;;;;;17.54;100.00;98288.38;4978238;28;20077;-56
2022/05/17 02:55:04;;;;;;;22.17;7.40;;;;;;;17.59;100.00;98290.69;4978338;28;20034;-55
2022/05/17 02:57:30;;;;;;;20.95;7.75;;;;;;;17.45;100.00;98292.44;4977541;28;20123;-56
2022/05/17 02:59:55;;;;;;;24.35;8.65;;;;;;;17.64;100.00;98304.44;4980605;28;20119;-55
2022/05/17 03:02:21;;;;;;;20.88;6.75;;;;;;;17.75;100.00;98299.28;4978475;28;20038;-55
2022/05/17 03:04:46;;;;;;;20.45;8.25;;;;;;;17.56;100.00;98309.38;4982844;28;20037;-56
2022/05/17 03:07:11;;;;;;;21.15;7.90;;;;;;;17.81;100.00;98304.19;4981664;28;20050;-56
2022/05/17 03:09:36;;;;;;;18.33;6.75;;;;;;;17.90;100.00;98303.63;4982098;28;20037;-56
2022/05/17 03:12:02;;;;;;;26.35;9.55;;;;;;;17.70;100.00;98312.81;4981800;28;20049;-57
2022/05/17 03:14:28;;;;;;;22.40;8.25;;;;;;;17.59;100.00;98319.69;4981944;28;20026;-55
2022/05/17 03:16:54;;;;;;;19.70;7.78;;;;;;;17.76;100.00;98322.09;4981038;28;20142;-55
2022/05/17 03:19:20;;;;;;;21.90;7.97;;;;;;;17.43;100.00;98325.97;4981834;28;20122;-58
2022/05/17 03:21:47;;;;;;;22.55;7.60;;;;;;;17.39;100.00;98328.88;4981544;28;20038;-56
2022/05/17 03:24:12;;;;;;;19.75;7.20;;;;;;;17.57;100.00;98340.94;4981278;28;20201;-55
2022/05/17 03:26:37;;;;;;;25.00;8.20;;;;;;;17.41;100.00;98340.22;4981317;28;20125;-57
2022/05/17 03:29:02;;;;;;;20.17;7.95;;;;;;;17.45;100.00;98339.91;4982059;28;20045;-55
2022/05/17 03:31:28;;;;;;;27.23;8.52;;;;;;;17.65;100.00;98330.72;4981508;28;20046;-55
2022/05/17 03:33:53;;;;;;;21.55;7.55;;;;;;;17.54;100.00;98334.03;4981690;28;20691;-55
2022/05/17 03:36:19;;;;;;;24.02;8.38;;;;;;;17.33;100.00;98340.66;4981556;28;20420;-57
2022/05/17 03:38:44;;;;;;;21.58;8.07;;;;;;;17.58;100.00;98339.13;4981701;28;20041;-55
2022/05/17 03:41:10;;;;;;;18.13;6.80;;;;;;;17.67;100.00;98349.91;4981095;28;20237;-56
2022/05/17 03:43:35;;;;;;;19.05;7.15;;;;;;;17.35;100.00;98354.63;4981104;28;20037;-56
2022/05/17 03:46:01;;;;;;;22.50;8.52;;;;;;;17.40;100.00;98352.53;4980858;28;20042;-56
2022/05/17 03:48:28;;;;;;;25.67;9.13;;;;;;;17.24;100.00;98362.34;4981127;28;20076;-57
2022/05/17 03:50:54;;;;;;;24.10;8.07;;;;;;;17.38;100.00;98362.31;4980502;28;20042;-57
2022/05/17 03:53:20;;;;;;;22.98;7.85;;;;;;;17.34;100.00;98368.75;4981319;28;20145;-55
2022/05/17 03:55:46;;;;;;;26.60;9.27;;;;;;;17.34;100.00;98366.94;4980185;28;20038;-57
2022/05/17 03:58:12;;;;;;;18.67;7.43;;;;;;;17.40;100.00;98376.25;4981498;28;20057;-57
2022/05/17 04:00:38;;;;;;;26.02;9.32;;;;;;;17.27;100.00;98372.69;4980699;28;20041;-55
2022/05/17 04:03:03;;;;;;;15.20;7.60;;;;;;;17.17;100.00;98371.56;4981352;28;20396;-55
2022/05/17 04:05:29;;;;;;;18.65;8.68;;;;;;;17.12;100.00;98377.13;4980385;28;20038;-56
2022/05/17 04:07:55;;;;;;;20.08;9.02;;;;;;;17.13;100.00;98377.06;4980960;28;20034;-55
2022/05/17 04:10:21;;;;;;;18.08;8.85;;;;;;;17.13;100.00;98382.31;4980165;28;20046;-56
2022/05/17 04:12:46;;;;;;;25.80;8.73;;;;;;;17.04;100.00;98382.88;4980823;28;20519;-55
2022/05/17 04:15:15;;;;;;;20.67;8.70;;;;;;;17.28;100.00;98384.97;4980023;28;20042;-55
2022/05/17 04:17:41;;;;;;;20.30;8.32;;;;;;;17.19;100.00;98390.81;4980745;28;20023;-57
2022/05/17 04:20:07;;;;;;;21.27;9.40;;;;;;;17.21;100.00;98386.28;4980096;28;20041;-56
2022/05/17 04:22:32;;;;;;;21.65;8.50;;;;;;;17.13;100.00;98384.13;4980806;28;20192;-56
2022/05/17 04:24:58;;;;;;;17.33;8.00;;;;;;;17.14;100.00;98385.78;4978926;28;20551;-56
2022/05/17 04:27:25;;;;;;;18.70;8.07;;;;;;;17.15;100.00;98388.34;4980097;28;20124;-55
2022/05/17 04:29:51;;;;;;;17.30;8.07;;;;;;;17.18;100.00;98391.72;4980577;28;20093;-58
2022/05/17 04:32:16;;;;;;;20.75;8.43;;;;;;;17.10;100.00;98389.56;4980623;28;20050;-57
2022/05/17 04:34:42;;;;;;;22.73;8.82;;;;;;;17.07;100.00;98393.22;4980469;28;20038;-57
2022/05/17 04:37:07;;;;;;;20.08;9.63;;;;;;;17.32;100.00;98391.72;4980037;28;20078;-58
2022/05/17 04:39:33;;;;;;;22.50;10.00;;;;;;;17.17;100.00;98397.94;4980012;28;20034;-57
2022/05/17 04:41:59;;;;;;;20.70;7.70;;;;;;;17.75;100.00;98390.78;4979734;28;20044;-57
2022/05/17 04:44:25;;;;;;;20.70;8.57;;;;;;;17.48;100.00;98403.00;4980743;28;20034;-57
2022/05/17 04:46:51;;;;;;;22.42;9.68;;;;;;;17.34;100.00;98400.38;4980216;28;20121;-57
2022/05/17 04:49:16;;;;;;;26.33;9.30;;;;;;;17.48;100.00;98408.28;4980549;28;20133;-56
2022/05/17 04:51:42;;;;;;;16.35;7.28;;;;;;;18.27;100.00;98401.47;4979910;28;20046;-57
2022/05/17 04:54:07;;;;;;;21.35;8.15;;;;;;;18.10;100.00;98396.44;4980213;28;20113;-58
2022/05/17 04:56:34;;;;;;;23.48;9.38;;;;;;;18.00;100.00;98403.28;4978388;28;20042;-56
2022/05/17 04:59:00;;;;;;;19.23;8.18;;;;;;;18.44;100.00;98394.22;4979400;28;20021;-56
2022/05/17 05:01:25;;;;;;;24.55;9.80;;;;;;;18.18;100.00;98396.81;4977241;28;20072;-56
2022/05/17 05:03:51;;;;;;;19.00;8.85;;;;;;;18.19;100.00;98409.03;4980487;28;20026;-56
2022/05/17 05:06:16;;;;;;;17.58;8.30;;;;;;;18.48;100.00;98411.56;4979348;28;20066;-59
2022/05/17 05:08:41;;;;;;;15.68;7.88;;;;;;;18.80;100.00;98411.19;4980107;28;20030;-57
2022/05/17 05:11:07;;;;;;;18.40;8.63;;;;;;;18.77;100.00;98408.75;4979198;28;20456;-57
2022/05/17 05:13:32;;;;;;;18.35;10.13;;;;;;;18.93;100.00;98420.00;4977659;28;20058;-56
2022/05/17 05:15:57;;;;;;;13.27;6.65;;;;;;;19.38;100.00;98417.75;4977834;28;20526;-57
2022/05/17 05:18:23;;;;;;;19.55;8.65;;;;;;;18.98;100.00;98417.88;4979032;28;20036;-57
2022/05/17 05:20:49;;;;;;;15.30;7.70;;;;;;;19.01;100.00;98427.41;4979579;28;20038;-57
2022/05/17 05:23:14;;;;;;;13.15;6.53;;;;;;;19.03;100.00;98426.34;4979813;28;20519;-58
2022/05/17 05:25:40;;;;;;;20.20;9.57;;;;;;;18.92;100.00;98420.94;4978778;28;20096;-58
2022/05/17 05:28:07;;;;;;;18.70;10.32;;;;;;;18.96;100.00;98426.88;4979053;28;20026;-57
2022/05/17 05:30:33;;;;;;;21.52;10.15;;;;;;;19.15;100.00;98429.09;4979094;28;20133;-56
2022/05/17 05:32:58;;;;;;;18.58;8.98;;;;;;;19.60;100.00;98426.81;4979540;28;20133;-57
2022/05/17 05:35:27;;;;;;;18.23;9.15;;;;;;;19.88;100.00;98422.22;4979052;28;20045;-58
2022/05/17 05:37:54;;;;;;;21.33;10.85;;;;;;;19.03;100.00;98431.63;4979123;28;20548;-59
2022/05/17 05:40:20;;;;;;;21.95;9.32;;;;;;;19.43;100.00;98428.84;4967810;28;20030;-59
2022/05/17 05:42:49;;;;;;;19.50;10.02;;;;;;;18.83;100.00;98430.34;4979009;28;20030;-58
2022/05/17 05:45:14;;;;;;;19.90;9.05;;;;;;;19.02;100.00;98429.94;4978696;28;20029;-57
2022/05/17 05:47:40;;;;;;;18.13;8.18;;;;;;;19.03;100.00;98434.28;4978986;28;20050;-57
2022/05/17 05:50:07;;;;;;;18.33;9.13;;;;;;;18.75;100.00;98437.06;4978700;28;20030;-58
2022/05/17 05:52:33;;;;;;;21.08;10.40;;;;;;;19.55;100.00;98421.00;4979144;28;20128;-58
2022/05/17 05:55:00;;;;;;;21.45;10.32;;;;;;;20.38;100.00;98428.22;4978007;28;20483;-55
2022/05/17 05:57:26;;;;;;;21.00;10.02;;;;;;;21.54;100.00;98422.94;4978624;28;20034;-56
2022/05/17 05:59:51;;;;;;;19.20;10.55;;;;;;;21.34;100.00;98428.00;4979087;28;20029;-56
2022/05/17 06:02:16;;;;;;;18.58;9.45;;;;;;;20.65;100.00;98438.59;4977996;28;20030;-56
2022/05/17 06:04:42;;;;;;;18.02;9.70;;;;;;;21.95;100.00;98429.41;4961588;28;20323;-56
2022/05/17 06:07:07;;;;;;;16.92;10.13;;;;;;;21.89;100.00;98429.91;4977385;28;20050;-57
2022/05/17 06:09:33;;;;;;;17.25;9.50;;;;;;;25.06;100.00;98429.03;4979004;28;20045;-55
2022/05/17 06:11:58;;;;;;;13.43;8.27;;;;;;;24.43;100.00;98432.19;4978535;28;20660;-56
2022/05/17 06:14:23;;;;;;;14.88;9.35;;;;;;;22.52;100.00;98428.28;4979255;28;20097;-57
2022/05/17 06:16:50;;;;;;;18.48;9.85;;;;;;;22.59;100.00;98422.44;4977531;28;20653;-57
2022/05/17 06:19:16;;;;;;;17.42;10.05;;;;;;;23.95;100.00;98423.16;4976784;28;20108;-56
2022/05/17 06:21:42;;;;;;;16.88;9.43;;;;;;;24.70;100.00;98415.47;4991584;28;20042;-56
2022/05/17 06:24:08;;;;;;;16.60;9.02;;;;;;;26.44;100.00;98422.84;4978859;28;20037;-57
2022/05/17 06:26:34;;;;;;;14.13;8.88;;;;;;;27.25;100.00;98418.28;4978078;28;20590;-56
2022/05/17 06:28:59;;;;;;;13.70;8.20;;;;;;;26.31;100.00;98422.41;4979022;28;20147;-56
2022/05/17 06:31:25;;;;;;;15.88;9.00;;;;;;;27.67;89.82;98423.69;4978493;28;20034;-56
2022/05/17 06:33:50;;;;;;;17.73;8.48;;;;;;;27.67;85.76;98425.53;4978873;28;20045;-56
2022/05/17 06:36:16;;;;;;;14.20;8.85;;;;;;;28.18;84.58;98421.03;4978381;28;20046;-57
2022/05/17 06:38:41;;;;;;;15.40;9.45;;;;;;;28.08;79.06;98425.69;4983165;28;20411;-58
2022/05/17 06:41:07;;;;;;;14.70;8.63;;;;;;;27.28;80.41;98428.72;4984642;28;20137;-56
2022/05/17 06:43:35;;;;;;;17.83;8.82;;;;;;;28.79;73.23;98423.44;4985633;28;20734;-57
2022/05/17 06:46:02;;;;;;;17.27;9.45;;;;;;;25.58;89.92;98433.94;4984534;28;20109;-57
2022/05/17 06:48:28;;;;;;;12.93;8.27;;;;;;;27.81;78.73;98430.28;4984660;28;20026;-56
2022/05/17 06:50:54;;;;;;;13.68;7.93;;;;;;;28.16;74.00;98430.22;4984524;28;20038;-57
2022/05/17 06:53:19;;;;;;;10.05;6.80;;;;;;;26.39;80.53;98421.63;4985044;28;20568;-56
2022/05/17 06:55:44;;;;;;;14.83;8.77;;;;;;;27.45;75.81;98429.63;4984199;28;20629;-56
2022/05/17 06:58:10;;;;;;;20.70;9.18;;;;;;;27.20;74.90;98431.31;4985129;28;20311;-57
2022/05/17 07:00:36;;;;;;;13.45;8.63;;;;;;;26.22;78.37;98429.50;4984438;28;20101;-57
2022/05/17 07:03:01;;;;;;;13.45;8.40;;;;;;;26.67;77.89;98433.97;4985097;28;20513;-56
2022/05/17 07:05:28;;;;;;;15.73;9.43;;;;;;;26.98;75.46;98430.00;4984562;28;20129;-56
2022/05/17 07:07:53;;;;;;;16.02;9.98;;;;;;;25.39;89.79;98437.53;4985164;28;20042;-57
2022/05/17 07:13:09;;;;;;;17.58;11.50;;;;;;;26.91;71.63;98437.84;4984679;28;20193;-56
2022/05/17 07:15:46;;;;;;;23.25;10.52;;;;;;;26.00;78.83;98435.28;4984097;28;20050;-57
2022/05/17 07:18:14;;;;;;;13.48;9.18;;;;;;;25.23;87.64;98442.63;4983303;28;20034;-57
2022/05/17 07:20:40;;;;;;;17.92;11.90;;;;;;;24.01;95.25;98440.41;4983791;28;20081;-56
2022/05/17 07:23:06;;;;;;;16.63;10.27;;;;;;;23.47;100.00;98432.66;4984239;28;20038;-56
2022/05/17 07:25:33;;;;;;;17.13;10.45;;;;;;;23.35;100.00;98443.53;4984033;28;20096;-56
2022/05/17 07:27:59;;;;;;;17.42;10.10;;;;;;;24.25;100.00;98445.34;4984589;28;20645;-58
2022/05/17 07:30:25;;;;;;;15.32;9.45;;;;;;;24.64;100.00;98450.72;4984417;28;20111;-56
2022/05/17 07:32:51;;;;;;;11.35;5.80;;;;;;;25.69;94.69;98441.75;4984938;28;20774;-55
2022/05/17 07:35:16;;;;;;;17.98;9.98;;;;;;;25.42;92.54;98450.59;4984097;28;20027;-56
2022/05/17 07:37:42;;;;;;;13.77;7.95;;;;;;;27.46;74.91;98444.69;4984528;28;20037;-55
2022/05/17 07:40:09;;;;;;;19.38;9.55;;;;;;;28.11;69.04;98452.19;4984610;28;20086;-56
2022/05/17 07:42:34;;;;;;;15.55;9.35;;;;;;;28.08;63.55;98447.16;4984567;28;20067;-57
2022/05/17 07:44:59;;;;;;;14.57;8.90;;;;;;;29.06;60.49;98446.41;4984807;28;20076;-56
2022/05/17 07:47:25;;;;;;;12.70;8.75;;;;;;;29.41;57.08;98455.09;4983949;28;20046;-56
2022/05/17 07:49:50;;;;;;;11.10;7.38;;;;;;;30.72;52.94;98448.22;4982135;28;20030;-56
2022/05/17 07:52:15;;;;;;;12.32;7.85;;;;;;;29.68;51.61;98451.13;4981166;28;20049;-58
2022/05/17 07:54:43;;;;;;;13.30;8.57;;;;;;;29.51;52.86;98444.16;4981550;28;20037;-56
2022/05/17 07:57:08;;;;;;;12.82;6.97;;;;;;;31.55;49.14;98443.72;4980709;28;20574;-56
2022/05/17 07:59:34;;;;;;;10.02;6.40;;;;;;;29.82;50.42;98446.06;4981515;28;20046;-56
2022/05/17 08:02:00;;;;;;;14.23;7.10;;;;;;;30.28;48.81;98443.47;4980708;28;20037;-58
2022/05/17 08:04:25;;;;;;;11.55;6.85;;;;;;;30.08;48.49;98441.22;4981666;28;20484;-58
2022/05/17 08:06:51;;;;;;;14.80;6.70;;;;;;;30.36;49.04;98438.03;4980465;28;20125;-58
2022/05/17 08:09:17;;;;;;;10.80;7.22;;;;;;;31.54;45.57;98435.81;4981047;28;20034;-59
2022/05/17 08:11:43;;;;;;;13.32;6.40;;;;;;;29.67;48.97;98430.66;4980977;28;20034;-59
2022/05/17 08:14:08;;;;;;;10.43;7.18;;;;;;;27.86;53.65;98433.34;4980726;28;20034;-56
2022/05/17 08:16:34;;;;;;;12.75;8.15;;;;;;;27.16;54.13;98435.31;4980463;28;20397;-58
2022/05/17 08:18:59;;;;;;;13.75;8.25;;;;;;;29.86;49.33;98437.47;4980111;28;20060;-58
2022/05/17 08:21:25;;;;;;;13.35;7.47;;;;;;;28.32;52.91;98432.94;4977895;28;20038;-57
2022/05/17 08:23:51;;;;;;;11.32;6.80;;;;;;;29.59;50.31;98436.03;4980848;28;20037;-57
2022/05/17 08:29:00;;;;;;;11.25;7.00;;;;;;;29.69;49.72;98425.94;4980970;28;20383;-59
2022/05/17 08:31:25;;;;;;;12.95;6.80;;;;;;;30.30;49.86;98427.97;4980344;28;20592;-59
2022/05/17 08:33:50;;;;;;;10.05;6.93;;;;;;;30.39;47.83;98420.72;4980666;28;20411;-58
2022/05/17 08:36:17;;;;;;;10.65;7.38;;;;;;;28.61;51.32;98431.66;4979811;28;20160;-59
2022/05/17 08:38:46;;;;;;;12.52;6.68;;;;;;;27.56;58.08;98431.19;4980881;28;20027;-57
2022/05/17 08:41:24;;;;;;;13.95;7.63;;;;;;;25.45;66.00;98434.25;4980570;28;20042;-57
2022/05/17 08:43:54;;;;;;;8.95;6.10;;;;;;;25.79;68.15;98436.38;4980832;28;20076;-57
2022/05/17 08:46:50;;;;;;;10.07;5.82;;;;;;;25.87;71.83;98444.47;4979700;28;20499;-58
2022/05/17 08:49:15;;;;;;;14.65;8.02;;;;;;;27.29;62.79;98438.41;4980599;28;20034;-58
2022/05/17 08:51:51;;;;;;;13.85;6.95;;;;;;;30.01;53.72;98437.56;4980451;28;20831;-57
2022/05/17 08:54:20;;;;;;;10.05;6.90;;;;;;;30.27;51.16;98439.94;4980045;28;20022;-56
2022/05/17 08:56:50;;;;;;;10.77;6.50;;;;;;;30.32;50.48;98431.31;4979528;28;20043;-56
2022/05/17 08:59:21;;;;;;;9.68;5.30;;;;;;;31.63;48.18;98424.78;4978820;28;20452;-58
2022/05/17 09:01:53;;;;;;;7.80;4.23;;;;;;;31.23;47.32;98432.28;4979500;28;20034;-58
2022/05/17 09:04:52;;;;;;;7.32;4.72;;;;;;;31.33;46.02;98419.34;4980482;28;20747;-57
2022/05/17 09:07:25;;;;;;;8.73;5.07;;;;;;;28.89;49.62;98423.25;4979377;28;20052;-57
2022/05/17 09:09:50;;;;;;;10.63;5.00;;;;;;;29.72;48.99;98422.91;4980099;28;20050;-56
2022/05/17 09:12:47;;;;;;;9.30;5.10;;;;;;;28.61;52.86;98426.28;4979708;28;20088;-56
2022/05/17 09:15:15;;;;;;;10.85;5.25;;;;;;;27.79;57.92;98426.94;4979854;28;20032;-59
2022/05/17 09:17:41;;;;;;;12.77;6.35;;;;;;;27.25;57.36;98437.88;4979651;28;20085;-56
2022/05/17 09:20:09;;;;;;;11.02;5.32;;;;;;;29.34;52.63;98436.13;4979583;28;20030;-58
2022/05/17 09:22:35;;;;;;;12.25;5.72;;;;;;;29.77;47.42;98433.97;4979103;28;20040;-59
2022/05/17 09:25:14;;;;;;;10.82;5.60;;;;;;;30.08;48.26;98435.84;4980187;28;20022;-58
2022/05/17 09:27:40;;;;;;;9.63;5.30;;;;;;;29.91;47.01;98435.09;4979146;28;20534;-57
2022/05/17 09:30:11;;;;;;;9.13;5.25;;;;;;;31.04;45.34;98422.84;4979332;28;20030;-59
2022/05/17 09:32:42;;;;;;;23.27;5.05;;;;;;;30.98;46.70;98423.59;4979403;28;20019;-57
2022/05/17 09:35:15;;;;;;;9.97;5.33;;;;;;;30.55;46.85;98421.41;4979475;28;20038;-56
2022/05/17 09:37:44;;;;;;;9.70;4.70;;;;;;;31.15;45.24;98426.13;4979129;28;20022;-58
2022/05/17 09:40:13;;;;;;;12.13;5.95;;;;;;;26.60;53.23;98434.72;4979271;28;20022;-58
2022/05/17 09:42:58;;;;;;;8.57;5.47;;;;;;;28.34;50.87;98424.72;4979499;28;20029;-59
2022/05/17 09:45:58;;;;;;;10.25;5.30;;;;;;;28.02;55.33;98423.69;4979252;28;20030;-58
2022/05/17 09:54:39;;;;;;;12.70;5.78;;;;;;;30.10;50.11;98423.03;4979279;28;20116;-57
2022/05/17 09:57:29;;;;;;;10.48;5.53;;;;;;;30.38;47.64;98429.78;4978224;28;20046;-58
2022/05/17 10:00:12;;;;;;;12.43;5.22;;;;;;;30.44;45.33;98419.16;4978875;28;20036;-58
2022/05/17 10:02:49;;;;;;;8.65;4.88;;;;;;;30.79;45.95;98411.47;4978577;28;20042;-58
2022/05/17 10:05:25;;;;;;;7.65;4.40;;;;;;;27.85;49.98;98420.91;4978474;28;20832;-57
2022/05/17 10:08:02;;;;;;;11.52;4.97;;;;;;;28.27;49.04;98412.00;4979218;28;20034;-57
2022/05/17 10:10:35;;;;;;;10.25;4.75;;;;;;;28.95;49.23;98417.19;4978715;28;20548;-57
2022/05/17 10:13:32;;;;;;;9.73;5.05;;;;;;;28.16;52.12;98416.81;4978097;28;20041;-56
2022/05/17 10:16:06;;;;;;;13.20;4.20;;;;;;;27.46;53.58;98421.44;4979276;28;20042;-57
2022/05/17 10:19:30;;;;;;;8.75;5.03;;;;;;;27.39;56.13;98412.38;4979261;28;20026;-58
2022/05/17 10:22:08;;;;;;;11.07;5.63;;;;;;;26.58;61.19;98421.47;4967504;28;20042;-55
2022/05/17 10:24:39;;;;;;;11.27;5.40;;;;;;;28.10;58.48;98418.31;4979082;28;20065;-57
2022/05/17 10:27:26;;;;;;;11.65;6.40;;;;;;;28.66;56.04;98412.38;4978545;28;20057;-57
2022/05/17 10:29:54;;;;;;;14.05;5.82;;;;;;;28.91;53.08;98414.03;4979523;28;20019;-58
2022/05/17 10:32:32;;;;;;;11.02;5.60;;;;;;;29.08;52.48;98414.00;4978289;28;20039;-57
2022/05/17 10:35:15;;;;;;;8.65;4.65;;;;;;;29.87;51.71;98419.47;4979155;28;20481;-58
2022/05/17 10:37:53;;;;;;;10.07;4.80;;;;;;;29.54;45.91;98411.56;4978963;28;20041;-57
2022/05/17 10:40:24;;;;;;;12.10;4.55;;;;;;;30.61;46.13;98410.94;4978006;28;20046;-56
2022/05/17 10:42:49;;;;;;;9.37;4.80;;;;;;;27.80;46.92;98411.69;4978879;28;20026;-57
2022/05/17 10:45:21;;;;;;;8.52;4.63;;;;;;;29.27;47.07;98416.34;4978542;28;20122;-57
2022/05/17 10:47:56;;;;;;;;;;;;;;;28.34;50.10;98403.28;4978901;28;20030;-58
2022/05/17 10:50:48;;;;;;;13.38;5.75;;;;;;;28.52;50.89;98406.63;4977912;28;19956;-57
2022/05/17 10:53:33;;;;;;;9.68;5.00;;;;;;;29.03;53.07;98399.22;4977393;28;20030;-56
2022/05/17 10:56:16;;;;;;;10.57;5.10;;;;;;;28.88;52.92;98398.25;4978313;28;20516;-55
2022/05/17 10:59:01;;;;;;;18.75;5.68;;;;;;;28.69;51.58;98406.66;4978148;28;20120;-56
2022/05/17 11:01:37;;;;;;;9.82;4.82;;;;;;;28.56;49.96;98399.97;4978218;28;20455;-56
2022/05/17 11:04:57;;;;;;;9.02;4.85;;;;;;;28.38;51.08;98393.88;4978728;28;20030;-56
2022/05/17 11:07:32;;;;;;;11.13;4.90;;;;;;;27.00;50.56;98388.69;4979004;28;20043;-56
2022/05/17 11:10:08;;;;;;;9.50;4.50;;;;;;;29.94;48.68;98397.09;4977876;28;20026;-56
2022/05/17 11:12:46;;;;;;;9.25;4.60;;;;;;;27.83;48.09;98395.28;4977967;28;20027;-57
2022/05/17 11:15:20;;;;;;;8.60;4.63;;;;;;;29.63;47.90;98393.53;4978334;28;20053;-57
2022/05/17 11:17:56;;;;;;;11.75;4.78;;;;;;;28.95;48.44;98404.63;4979074;28;20239;-56
2022/05/17 11:20:40;;;;;;;24.40;15.13;;;;;;;29.59;43.71;98395.72;4978423;28;20041;-56
2022/05/17 11:23:36;;;;;;;8.68;3.67;;;;;;;29.14;45.55;98398.06;4979387;28;20037;-56
2022/05/17 11:26:24;;;;;;;7.68;3.80;;;;;;;29.38;44.12;98397.16;4981085;28;20042;-58
2022/05/17 11:28:55;;;;;;;9.85;4.20;;;;;;;28.60;48.25;98393.25;4982452;28;20061;-57
2022/05/17 11:31:37;;;;;;;10.13;4.22;;;;;;;29.72;47.32;98387.94;4981959;28;20095;-57
2022/05/17 11:34:35;;;;;;;11.13;4.13;;;;;;;29.09;46.80;98388.81;4982515;28;20023;-57
2022/05/17 11:37:05;;;;;;;9.60;4.47;;;;;;;28.06;47.21;98377.59;4981697;28;20122;-56
2022/05/17 11:39:31;;;;;;;9.63;3.92;;;;;;;28.42;48.32;98371.09;4982097;28;20038;-58
2022/05/17 11:42:23;;;;;;;11.63;4.40;;;;;;;27.12;50.44;98382.06;4981847;28;20089;-57